sensor_id;sensor_type;location;lat;lon;timestamp;P1;durP1;ratioP1;P2;durP2;ratioP2
18280;SDS011;9266;51.132;17.062;2023-06-14T00:00:42;9.00;;;7.17;;
18280;SDS011;9266;51.132;17.062;2023-06-14T00:03:09;8.63;;;7.57;;
18280;SDS011;9266;51.132;17.062;2023-06-14T00:05:36;10.00;;;7.07;;
18280;SDS011;9266;51.132;17.062;2023-06-14T00:08:08;8.37;;;7.30;;
18280;SDS011;9266;51.132;17.062;2023-06-14T00:10:37;7.70;;;6.90;;
18280;SDS011;9266;51.132;17.062;2023-06-14T00:13:06;9.00;;;7.40;;
18280;SDS011;9266;51.132;17.062;2023-06-14T00:15:34;7.87;;;7.00;;
18280;SDS011;9266;51.132;17.062;2023-06-14T00:18:01;8.60;;;7.60;;
18280;SDS011;9266;51.132;17.062;2023-06-14T00:20:28;10.80;;;7.73;;
18280;SDS011;9266;51.132;17.062;2023-06-14T00:22:57;7.33;;;6.63;;
18280;SDS011;9266;51.132;17.062;2023-06-14T00:25:24;7.73;;;6.93;;
18280;SDS011;9266;51.132;17.062;2023-06-14T00:27:53;8.03;;;7.23;;
18280;SDS011;9266;51.132;17.062;2023-06-14T00:30:21;8.93;;;6.80;;
18280;SDS011;9266;51.132;17.062;2023-06-14T00:32:48;7.53;;;6.73;;
18280;SDS011;9266;51.132;17.062;2023-06-14T00:35:15;8.20;;;7.30;;
18280;SDS011;9266;51.132;17.062;2023-06-14T00:37:42;9.27;;;7.30;;
18280;SDS011;9266;51.132;17.062;2023-06-14T00:40:09;7.80;;;7.00;;
18280;SDS011;9266;51.132;17.062;2023-06-14T00:42:36;8.03;;;7.17;;
18280;SDS011;9266;51.132;17.062;2023-06-14T00:45:05;8.50;;;7.33;;
18280;SDS011;9266;51.132;17.062;2023-06-14T00:47:33;9.00;;;7.37;;
18280;SDS011;9266;51.132;17.062;2023-06-14T00:50:01;11.37;;;7.27;;
18280;SDS011;9266;51.132;17.062;2023-06-14T00:52:28;7.90;;;7.10;;
18280;SDS011;9266;51.132;17.062;2023-06-14T00:54:57;8.47;;;7.57;;
18280;SDS011;9266;51.132;17.062;2023-06-14T00:57:24;9.00;;;7.33;;
18280;SDS011;9266;51.132;17.062;2023-06-14T00:59:52;8.73;;;7.47;;
18280;SDS011;9266;51.132;17.062;2023-06-14T01:02:22;8.60;;;7.67;;
18280;SDS011;9266;51.132;17.062;2023-06-14T01:04:49;7.87;;;7.07;;
18280;SDS011;9266;51.132;17.062;2023-06-14T01:07:20;8.70;;;7.47;;
18280;SDS011;9266;51.132;17.062;2023-06-14T01:09:58;9.20;;;7.73;;
18280;SDS011;9266;51.132;17.062;2023-06-14T01:12:35;8.90;;;7.37;;
18280;SDS011;9266;51.132;17.062;2023-06-14T01:15:10;9.00;;;8.07;;
18280;SDS011;9266;51.132;17.062;2023-06-14T01:17:40;9.23;;;8.00;;
18280;SDS011;9266;51.132;17.062;2023-06-14T01:20:12;9.87;;;7.70;;
18280;SDS011;9266;51.132;17.062;2023-06-14T01:22:50;9.63;;;7.93;;
18280;SDS011;9266;51.132;17.062;2023-06-14T01:25:18;10.90;;;7.83;;
18280;SDS011;9266;51.132;17.062;2023-06-14T01:27:48;9.17;;;7.97;;
18280;SDS011;9266;51.132;17.062;2023-06-14T01:30:15;9.00;;;8.10;;
18280;SDS011;9266;51.132;17.062;2023-06-14T01:32:44;9.47;;;8.00;;
18280;SDS011;9266;51.132;17.062;2023-06-14T01:35:11;11.07;;;9.03;;
18280;SDS011;9266;51.132;17.062;2023-06-14T01:37:39;10.60;;;8.87;;
18280;SDS011;9266;51.132;17.062;2023-06-14T01:40:10;10.50;;;8.97;;
18280;SDS011;9266;51.132;17.062;2023-06-14T01:42:38;9.50;;;8.07;;
18280;SDS011;9266;51.132;17.062;2023-06-14T01:45:06;9.57;;;8.50;;
18280;SDS011;9266;51.132;17.062;2023-06-14T01:47:34;9.27;;;8.37;;
18280;SDS011;9266;51.132;17.062;2023-06-14T01:50:01;9.97;;;8.60;;
18280;SDS011;9266;51.132;17.062;2023-06-14T01:52:29;10.73;;;8.27;;
18280;SDS011;9266;51.132;17.062;2023-06-14T01:54:56;11.27;;;8.87;;
18280;SDS011;9266;51.132;17.062;2023-06-14T01:57:25;9.47;;;8.50;;
18280;SDS011;9266;51.132;17.062;2023-06-14T01:59:52;9.17;;;8.17;;
18280;SDS011;9266;51.132;17.062;2023-06-14T02:02:19;10.07;;;8.67;;
18280;SDS011;9266;51.132;17.062;2023-06-14T02:04:46;9.10;;;8.20;;
18280;SDS011;9266;51.132;17.062;2023-06-14T02:07:13;9.00;;;8.13;;
18280;SDS011;9266;51.132;17.062;2023-06-14T02:09:41;11.37;;;8.50;;
18280;SDS011;9266;51.132;17.062;2023-06-14T02:12:08;9.80;;;7.97;;
18280;SDS011;9266;51.132;17.062;2023-06-14T02:14:37;9.57;;;8.57;;
18280;SDS011;9266;51.132;17.062;2023-06-14T02:17:04;10.77;;;8.47;;
18280;SDS011;9266;51.132;17.062;2023-06-14T02:19:31;10.80;;;8.70;;
18280;SDS011;9266;51.132;17.062;2023-06-14T02:21:59;11.80;;;8.47;;
18280;SDS011;9266;51.132;17.062;2023-06-14T02:24:26;10.50;;;8.73;;
18280;SDS011;9266;51.132;17.062;2023-06-14T02:26:53;10.60;;;9.00;;
18280;SDS011;9266;51.132;17.062;2023-06-14T02:29:20;11.17;;;8.93;;
18280;SDS011;9266;51.132;17.062;2023-06-14T02:31:48;13.77;;;8.83;;
18280;SDS011;9266;51.132;17.062;2023-06-14T02:34:15;16.87;;;8.60;;
18280;SDS011;9266;51.132;17.062;2023-06-14T02:36:43;9.57;;;8.57;;
18280;SDS011;9266;51.132;17.062;2023-06-14T02:39:10;24.97;;;11.13;;
18280;SDS011;9266;51.132;17.062;2023-06-14T02:41:38;10.57;;;8.60;;
18280;SDS011;9266;51.132;17.062;2023-06-14T02:44:05;9.67;;;8.60;;
18280;SDS011;9266;51.132;17.062;2023-06-14T02:46:32;9.13;;;8.23;;
18280;SDS011;9266;51.132;17.062;2023-06-14T02:49:01;8.93;;;8.03;;
18280;SDS011;9266;51.132;17.062;2023-06-14T02:51:28;12.50;;;9.13;;
18280;SDS011;9266;51.132;17.062;2023-06-14T02:53:54;12.23;;;9.37;;
18280;SDS011;9266;51.132;17.062;2023-06-14T02:56:21;9.37;;;8.40;;
18280;SDS011;9266;51.132;17.062;2023-06-14T02:58:49;11.00;;;8.77;;
18280;SDS011;9266;51.132;17.062;2023-06-14T03:01:16;13.07;;;8.90;;
18280;SDS011;9266;51.132;17.062;2023-06-14T03:03:45;9.97;;;8.50;;
18280;SDS011;9266;51.132;17.062;2023-06-14T03:06:14;9.40;;;8.20;;
18280;SDS011;9266;51.132;17.062;2023-06-14T03:08:41;9.43;;;8.50;;
18280;SDS011;9266;51.132;17.062;2023-06-14T03:11:09;11.97;;;8.27;;
18280;SDS011;9266;51.132;17.062;2023-06-14T03:13:36;12.83;;;9.53;;
18280;SDS011;9266;51.132;17.062;2023-06-14T03:16:04;9.10;;;7.97;;
18280;SDS011;9266;51.132;17.062;2023-06-14T03:18:32;9.40;;;8.33;;
18280;SDS011;9266;51.132;17.062;2023-06-14T03:21:00;10.60;;;7.73;;
18280;SDS011;9266;51.132;17.062;2023-06-14T03:23:29;10.03;;;8.47;;
18280;SDS011;9266;51.132;17.062;2023-06-14T03:25:56;9.73;;;8.17;;
18280;SDS011;9266;51.132;17.062;2023-06-14T03:28:23;10.70;;;8.43;;
18280;SDS011;9266;51.132;17.062;2023-06-14T03:30:50;9.50;;;8.50;;
18280;SDS011;9266;51.132;17.062;2023-06-14T03:33:17;9.10;;;8.20;;
18280;SDS011;9266;51.132;17.062;2023-06-14T03:35:44;9.27;;;8.30;;
18280;SDS011;9266;51.132;17.062;2023-06-14T03:38:11;8.70;;;7.60;;
18280;SDS011;9266;51.132;17.062;2023-06-14T03:40:40;10.13;;;7.80;;
18280;SDS011;9266;51.132;17.062;2023-06-14T03:43:07;9.77;;;8.10;;
18280;SDS011;9266;51.132;17.062;2023-06-14T03:45:34;9.87;;;8.00;;
18280;SDS011;9266;51.132;17.062;2023-06-14T03:48:01;8.50;;;7.27;;
18280;SDS011;9266;51.132;17.062;2023-06-14T03:50:28;9.93;;;7.37;;
18280;SDS011;9266;51.132;17.062;2023-06-14T03:52:55;10.63;;;7.43;;
18280;SDS011;9266;51.132;17.062;2023-06-14T03:55:22;8.47;;;7.47;;
18280;SDS011;9266;51.132;17.062;2023-06-14T03:57:51;8.90;;;7.60;;
18280;SDS011;9266;51.132;17.062;2023-06-14T04:00:18;9.80;;;7.97;;
18280;SDS011;9266;51.132;17.062;2023-06-14T04:02:46;10.90;;;8.10;;
18280;SDS011;9266;51.132;17.062;2023-06-14T04:05:13;9.50;;;8.23;;
18280;SDS011;9266;51.132;17.062;2023-06-14T04:07:41;11.27;;;8.37;;
18280;SDS011;9266;51.132;17.062;2023-06-14T04:10:10;8.80;;;7.83;;
18280;SDS011;9266;51.132;17.062;2023-06-14T04:12:38;11.57;;;7.77;;
18280;SDS011;9266;51.132;17.062;2023-06-14T04:15:07;11.00;;;8.07;;
18280;SDS011;9266;51.132;17.062;2023-06-14T04:17:35;8.17;;;7.37;;
18280;SDS011;9266;51.132;17.062;2023-06-14T04:20:03;10.83;;;7.97;;
18280;SDS011;9266;51.132;17.062;2023-06-14T04:22:34;7.80;;;7.10;;
18280;SDS011;9266;51.132;17.062;2023-06-14T04:25:01;8.73;;;7.13;;
18280;SDS011;9266;51.132;17.062;2023-06-14T04:27:31;8.90;;;7.27;;
18280;SDS011;9266;51.132;17.062;2023-06-14T04:30:01;8.53;;;6.53;;
18280;SDS011;9266;51.132;17.062;2023-06-14T04:32:30;10.83;;;6.97;;
18280;SDS011;9266;51.132;17.062;2023-06-14T04:34:58;8.20;;;7.23;;
18280;SDS011;9266;51.132;17.062;2023-06-14T04:37:27;11.60;;;7.40;;
18280;SDS011;9266;51.132;17.062;2023-06-14T04:39:55;11.60;;;7.27;;
18280;SDS011;9266;51.132;17.062;2023-06-14T04:42:22;12.07;;;7.10;;
18280;SDS011;9266;51.132;17.062;2023-06-14T04:44:56;10.77;;;7.83;;
18280;SDS011;9266;51.132;17.062;2023-06-14T04:47:23;8.80;;;7.90;;
18280;SDS011;9266;51.132;17.062;2023-06-14T04:49:56;9.87;;;8.17;;
18280;SDS011;9266;51.132;17.062;2023-06-14T04:52:25;10.57;;;8.37;;
18280;SDS011;9266;51.132;17.062;2023-06-14T04:54:54;11.03;;;8.37;;
18280;SDS011;9266;51.132;17.062;2023-06-14T04:57:22;10.87;;;8.33;;
18280;SDS011;9266;51.132;17.062;2023-06-14T04:59:50;12.63;;;8.70;;
18280;SDS011;9266;51.132;17.062;2023-06-14T05:02:20;10.50;;;8.93;;
18280;SDS011;9266;51.132;17.062;2023-06-14T05:04:47;13.23;;;10.50;;
18280;SDS011;9266;51.132;17.062;2023-06-14T05:07:16;12.03;;;10.37;;
18280;SDS011;9266;51.132;17.062;2023-06-14T05:09:44;13.03;;;10.17;;
18280;SDS011;9266;51.132;17.062;2023-06-14T05:12:11;15.40;;;11.53;;
18280;SDS011;9266;51.132;17.062;2023-06-14T05:14:38;14.57;;;12.07;;
18280;SDS011;9266;51.132;17.062;2023-06-14T05:17:05;12.77;;;11.40;;
18280;SDS011;9266;51.132;17.062;2023-06-14T05:19:32;16.90;;;13.10;;
18280;SDS011;9266;51.132;17.062;2023-06-14T05:21:59;13.90;;;11.77;;
18280;SDS011;9266;51.132;17.062;2023-06-14T05:24:29;17.43;;;12.77;;
18280;SDS011;9266;51.132;17.062;2023-06-14T05:26:57;17.17;;;12.40;;
18280;SDS011;9266;51.132;17.062;2023-06-14T05:29:24;15.80;;;12.27;;
18280;SDS011;9266;51.132;17.062;2023-06-14T05:31:52;12.60;;;11.27;;
18280;SDS011;9266;51.132;17.062;2023-06-14T05:34:19;13.27;;;11.87;;
18280;SDS011;9266;51.132;17.062;2023-06-14T05:36:46;13.40;;;11.93;;
18280;SDS011;9266;51.132;17.062;2023-06-14T05:39:13;14.17;;;12.67;;
18280;SDS011;9266;51.132;17.062;2023-06-14T05:41:43;14.67;;;11.97;;
18280;SDS011;9266;51.132;17.062;2023-06-14T05:44:10;15.33;;;12.13;;
18280;SDS011;9266;51.132;17.062;2023-06-14T05:46:39;13.50;;;12.10;;
18280;SDS011;9266;51.132;17.062;2023-06-14T05:49:06;13.83;;;12.20;;
18280;SDS011;9266;51.132;17.062;2023-06-14T05:51:34;15.50;;;11.93;;
18280;SDS011;9266;51.132;17.062;2023-06-14T05:54:01;13.27;;;11.33;;
18280;SDS011;9266;51.132;17.062;2023-06-14T05:56:28;16.27;;;12.20;;
18280;SDS011;9266;51.132;17.062;2023-06-14T05:58:57;13.17;;;11.40;;
18280;SDS011;9266;51.132;17.062;2023-06-14T06:01:23;14.03;;;11.77;;
18280;SDS011;9266;51.132;17.062;2023-06-14T06:03:51;13.23;;;11.20;;
18280;SDS011;9266;51.132;17.062;2023-06-14T06:06:18;15.30;;;12.97;;
18280;SDS011;9266;51.132;17.062;2023-06-14T06:08:45;15.07;;;12.10;;
18280;SDS011;9266;51.132;17.062;2023-06-14T06:11:12;14.50;;;11.40;;
18280;SDS011;9266;51.132;17.062;2023-06-14T06:13:39;16.17;;;12.13;;
18280;SDS011;9266;51.132;17.062;2023-06-14T06:16:08;19.63;;;12.80;;
18280;SDS011;9266;51.132;17.062;2023-06-14T06:18:35;14.03;;;12.03;;
18280;SDS011;9266;51.132;17.062;2023-06-14T06:21:03;11.73;;;10.50;;
18280;SDS011;9266;51.132;17.062;2023-06-14T06:23:30;15.00;;;11.50;;
18280;SDS011;9266;51.132;17.062;2023-06-14T06:25:58;13.30;;;10.77;;
18280;SDS011;9266;51.132;17.062;2023-06-14T06:28:25;12.77;;;11.03;;
18280;SDS011;9266;51.132;17.062;2023-06-14T06:30:52;13.17;;;10.97;;
18280;SDS011;9266;51.132;17.062;2023-06-14T06:33:21;14.20;;;12.37;;
18280;SDS011;9266;51.132;17.062;2023-06-14T06:35:48;13.10;;;11.53;;
18280;SDS011;9266;51.132;17.062;2023-06-14T06:38:15;14.27;;;12.20;;
18280;SDS011;9266;51.132;17.062;2023-06-14T06:40:43;14.20;;;12.70;;
18280;SDS011;9266;51.132;17.062;2023-06-14T06:43:10;14.37;;;12.83;;
18280;SDS011;9266;51.132;17.062;2023-06-14T06:45:38;15.07;;;13.47;;
18280;SDS011;9266;51.132;17.062;2023-06-14T06:48:05;16.87;;;13.47;;
18280;SDS011;9266;51.132;17.062;2023-06-14T06:50:36;19.20;;;14.37;;
18280;SDS011;9266;51.132;17.062;2023-06-14T06:53:03;17.60;;;14.07;;
18280;SDS011;9266;51.132;17.062;2023-06-14T06:55:32;15.43;;;13.47;;
18280;SDS011;9266;51.132;17.062;2023-06-14T06:57:59;17.23;;;13.47;;
18280;SDS011;9266;51.132;17.062;2023-06-14T07:00:26;15.60;;;13.67;;
18280;SDS011;9266;51.132;17.062;2023-06-14T07:02:53;16.37;;;13.97;;
18280;SDS011;9266;51.132;17.062;2023-06-14T07:05:20;17.27;;;14.43;;
18280;SDS011;9266;51.132;17.062;2023-06-14T07:07:48;19.67;;;14.70;;
18280;SDS011;9266;51.132;17.062;2023-06-14T07:10:15;19.47;;;14.87;;
18280;SDS011;9266;51.132;17.062;2023-06-14T07:12:43;20.30;;;14.37;;
18280;SDS011;9266;51.132;17.062;2023-06-14T07:15:11;17.20;;;14.27;;
18280;SDS011;9266;51.132;17.062;2023-06-14T07:17:38;17.37;;;14.00;;
18280;SDS011;9266;51.132;17.062;2023-06-14T07:20:05;18.03;;;14.43;;
18280;SDS011;9266;51.132;17.062;2023-06-14T07:22:38;17.33;;;14.43;;
18280;SDS011;9266;51.132;17.062;2023-06-14T07:25:09;16.67;;;13.40;;
18280;SDS011;9266;51.132;17.062;2023-06-14T07:27:38;17.43;;;13.30;;
18280;SDS011;9266;51.132;17.062;2023-06-14T07:30:06;16.07;;;13.47;;
18280;SDS011;9266;51.132;17.062;2023-06-14T07:32:34;15.83;;;11.97;;
18280;SDS011;9266;51.132;17.062;2023-06-14T07:35:02;14.40;;;11.67;;
18280;SDS011;9266;51.132;17.062;2023-06-14T07:37:29;13.20;;;11.73;;
18280;SDS011;9266;51.132;17.062;2023-06-14T07:39:56;12.70;;;10.67;;
18280;SDS011;9266;51.132;17.062;2023-06-14T07:42:24;12.57;;;10.93;;
18280;SDS011;9266;51.132;17.062;2023-06-14T07:44:51;14.07;;;11.70;;
18280;SDS011;9266;51.132;17.062;2023-06-14T07:47:19;13.43;;;11.97;;
18280;SDS011;9266;51.132;17.062;2023-06-14T07:49:45;14.17;;;12.00;;
18280;SDS011;9266;51.132;17.062;2023-06-14T07:52:13;16.80;;;12.50;;
18280;SDS011;9266;51.132;17.062;2023-06-14T07:54:40;16.83;;;12.83;;
18280;SDS011;9266;51.132;17.062;2023-06-14T07:57:06;14.97;;;12.40;;
18280;SDS011;9266;51.132;17.062;2023-06-14T07:59:35;14.00;;;12.50;;
18280;SDS011;9266;51.132;17.062;2023-06-14T08:02:02;13.90;;;12.20;;
18280;SDS011;9266;51.132;17.062;2023-06-14T08:04:29;13.73;;;11.77;;
18280;SDS011;9266;51.132;17.062;2023-06-14T08:06:57;13.43;;;11.80;;
18280;SDS011;9266;51.132;17.062;2023-06-14T08:09:24;13.93;;;12.53;;
18280;SDS011;9266;51.132;17.062;2023-06-14T08:11:53;13.67;;;11.30;;
18280;SDS011;9266;51.132;17.062;2023-06-14T08:14:19;14.20;;;12.47;;
18280;SDS011;9266;51.132;17.062;2023-06-14T08:16:48;11.87;;;10.67;;
18280;SDS011;9266;51.132;17.062;2023-06-14T08:19:15;13.77;;;11.50;;
18280;SDS011;9266;51.132;17.062;2023-06-14T08:21:43;14.50;;;11.00;;
18280;SDS011;9266;51.132;17.062;2023-06-14T08:24:11;12.70;;;10.87;;
18280;SDS011;9266;51.132;17.062;2023-06-14T08:26:39;13.00;;;11.00;;
18280;SDS011;9266;51.132;17.062;2023-06-14T08:29:06;13.27;;;11.20;;
18280;SDS011;9266;51.132;17.062;2023-06-14T08:31:33;17.50;;;12.20;;
18280;SDS011;9266;51.132;17.062;2023-06-14T08:34:01;17.00;;;10.67;;
18280;SDS011;9266;51.132;17.062;2023-06-14T08:36:28;12.97;;;10.90;;
18280;SDS011;9266;51.132;17.062;2023-06-14T08:38:55;13.17;;;10.63;;
18280;SDS011;9266;51.132;17.062;2023-06-14T08:41:22;12.63;;;10.97;;
18280;SDS011;9266;51.132;17.062;2023-06-14T08:43:50;12.47;;;11.00;;
18280;SDS011;9266;51.132;17.062;2023-06-14T08:46:17;13.37;;;10.73;;
18280;SDS011;9266;51.132;17.062;2023-06-14T08:48:47;15.43;;;11.20;;
18280;SDS011;9266;51.132;17.062;2023-06-14T08:51:18;14.67;;;11.80;;
18280;SDS011;9266;51.132;17.062;2023-06-14T08:53:49;13.50;;;11.90;;
18280;SDS011;9266;51.132;17.062;2023-06-14T08:56:22;13.17;;;11.77;;
18280;SDS011;9266;51.132;17.062;2023-06-14T08:58:52;10.63;;;9.20;;
18280;SDS011;9266;51.132;17.062;2023-06-14T09:01:20;14.77;;;11.10;;
18280;SDS011;9266;51.132;17.062;2023-06-14T09:03:48;12.27;;;10.23;;
18280;SDS011;9266;51.132;17.062;2023-06-14T09:06:16;12.43;;;9.87;;
18280;SDS011;9266;51.132;17.062;2023-06-14T09:08:48;12.87;;;10.10;;
18280;SDS011;9266;51.132;17.062;2023-06-14T09:11:17;11.97;;;9.27;;
18280;SDS011;9266;51.132;17.062;2023-06-14T09:13:46;12.27;;;8.90;;
18280;SDS011;9266;51.132;17.062;2023-06-14T09:16:14;11.20;;;9.77;;
18280;SDS011;9266;51.132;17.062;2023-06-14T09:18:43;11.03;;;9.83;;
18280;SDS011;9266;51.132;17.062;2023-06-14T09:21:13;11.07;;;8.80;;
18280;SDS011;9266;51.132;17.062;2023-06-14T09:23:42;9.60;;;8.60;;
18280;SDS011;9266;51.132;17.062;2023-06-14T09:26:11;11.73;;;8.70;;
18280;SDS011;9266;51.132;17.062;2023-06-14T09:28:41;9.97;;;8.37;;
18280;SDS011;9266;51.132;17.062;2023-06-14T09:31:09;11.03;;;8.03;;
18280;SDS011;9266;51.132;17.062;2023-06-14T09:33:37;13.60;;;8.43;;
18280;SDS011;9266;51.132;17.062;2023-06-14T09:36:04;14.03;;;8.77;;
18280;SDS011;9266;51.132;17.062;2023-06-14T09:38:35;12.07;;;8.37;;
18280;SDS011;9266;51.132;17.062;2023-06-14T09:41:04;8.70;;;7.83;;
18280;SDS011;9266;51.132;17.062;2023-06-14T09:43:31;9.70;;;7.93;;
18280;SDS011;9266;51.132;17.062;2023-06-14T09:46:00;8.63;;;7.43;;
18280;SDS011;9266;51.132;17.062;2023-06-14T09:48:27;9.40;;;8.43;;
18280;SDS011;9266;51.132;17.062;2023-06-14T09:50:55;10.07;;;7.80;;
18280;SDS011;9266;51.132;17.062;2023-06-14T09:53:23;8.70;;;7.13;;
18280;SDS011;9266;51.132;17.062;2023-06-14T09:55:51;7.63;;;6.57;;
18280;SDS011;9266;51.132;17.062;2023-06-14T09:58:23;8.33;;;7.47;;
18280;SDS011;9266;51.132;17.062;2023-06-14T10:00:52;10.97;;;7.17;;
18280;SDS011;9266;51.132;17.062;2023-06-14T10:03:22;10.47;;;7.97;;
18280;SDS011;9266;51.132;17.062;2023-06-14T10:05:53;7.60;;;6.27;;
18280;SDS011;9266;51.132;17.062;2023-06-14T10:08:26;7.30;;;6.40;;
18280;SDS011;9266;51.132;17.062;2023-06-14T10:10:58;7.70;;;6.23;;
18280;SDS011;9266;51.132;17.062;2023-06-14T10:13:27;7.33;;;5.87;;
18280;SDS011;9266;51.132;17.062;2023-06-14T10:15:58;7.57;;;6.53;;
18280;SDS011;9266;51.132;17.062;2023-06-14T10:18:32;9.07;;;5.77;;
18280;SDS011;9266;51.132;17.062;2023-06-14T10:21:08;7.17;;;5.70;;
18280;SDS011;9266;51.132;17.062;2023-06-14T10:23:45;8.10;;;5.67;;
18280;SDS011;9266;51.132;17.062;2023-06-14T10:26:19;8.57;;;6.30;;
18280;SDS011;9266;51.132;17.062;2023-06-14T10:28:58;7.20;;;5.53;;
18280;SDS011;9266;51.132;17.062;2023-06-14T10:34:20;7.07;;;5.47;;
18280;SDS011;9266;51.132;17.062;2023-06-14T10:36:59;17.63;;;14.70;;
18280;SDS011;9266;51.132;17.062;2023-06-14T10:39:28;6.33;;;5.43;;
18280;SDS011;9266;51.132;17.062;2023-06-14T10:41:56;9.03;;;5.90;;
18280;SDS011;9266;51.132;17.062;2023-06-14T10:44:34;7.77;;;5.37;;
18280;SDS011;9266;51.132;17.062;2023-06-14T10:47:27;7.90;;;5.40;;
18280;SDS011;9266;51.132;17.062;2023-06-14T10:49:56;7.57;;;5.20;;
18280;SDS011;9266;51.132;17.062;2023-06-14T10:52:29;6.07;;;5.30;;
18280;SDS011;9266;51.132;17.062;2023-06-14T10:57:38;6.97;;;5.23;;
18280;SDS011;9266;51.132;17.062;2023-06-14T11:00:08;7.00;;;5.40;;
18280;SDS011;9266;51.132;17.062;2023-06-14T11:02:50;8.90;;;5.40;;
18280;SDS011;9266;51.132;17.062;2023-06-14T11:05:27;7.23;;;5.00;;
18280;SDS011;9266;51.132;17.062;2023-06-14T11:08:11;4.97;;;4.47;;
18280;SDS011;9266;51.132;17.062;2023-06-14T11:10:49;9.43;;;5.40;;
18280;SDS011;9266;51.132;17.062;2023-06-14T11:13:17;5.60;;;4.67;;
18280;SDS011;9266;51.132;17.062;2023-06-14T11:15:47;7.23;;;5.03;;
18280;SDS011;9266;51.132;17.062;2023-06-14T11:18:17;8.93;;;5.00;;
18280;SDS011;9266;51.132;17.062;2023-06-14T11:20:49;5.13;;;4.50;;
18280;SDS011;9266;51.132;17.062;2023-06-14T11:23:16;6.73;;;4.50;;
18280;SDS011;9266;51.132;17.062;2023-06-14T11:25:43;7.60;;;5.20;;
18280;SDS011;9266;51.132;17.062;2023-06-14T11:28:15;6.87;;;4.37;;
18280;SDS011;9266;51.132;17.062;2023-06-14T11:30:42;6.83;;;4.50;;
18280;SDS011;9266;51.132;17.062;2023-06-14T11:33:11;7.23;;;4.67;;
18280;SDS011;9266;51.132;17.062;2023-06-14T11:35:42;7.70;;;5.00;;
18280;SDS011;9266;51.132;17.062;2023-06-14T11:38:10;5.17;;;3.87;;
18280;SDS011;9266;51.132;17.062;2023-06-14T11:40:37;5.33;;;4.00;;
18280;SDS011;9266;51.132;17.062;2023-06-14T11:43:05;5.50;;;4.00;;
18280;SDS011;9266;51.132;17.062;2023-06-14T11:45:32;7.33;;;4.67;;
18280;SDS011;9266;51.132;17.062;2023-06-14T11:48:00;6.20;;;4.40;;
18280;SDS011;9266;51.132;17.062;2023-06-14T11:50:28;5.53;;;4.30;;
18280;SDS011;9266;51.132;17.062;2023-06-14T11:52:56;5.27;;;4.43;;
18280;SDS011;9266;51.132;17.062;2023-06-14T11:55:25;5.90;;;4.53;;
18280;SDS011;9266;51.132;17.062;2023-06-14T11:57:53;5.40;;;4.60;;
18280;SDS011;9266;51.132;17.062;2023-06-14T12:00:24;6.43;;;4.73;;
18280;SDS011;9266;51.132;17.062;2023-06-14T12:02:52;5.80;;;4.43;;
18280;SDS011;9266;51.132;17.062;2023-06-14T12:05:21;6.90;;;4.93;;
18280;SDS011;9266;51.132;17.062;2023-06-14T12:07:49;5.97;;;4.90;;
18280;SDS011;9266;51.132;17.062;2023-06-14T12:10:18;6.50;;;4.70;;
18280;SDS011;9266;51.132;17.062;2023-06-14T12:12:45;9.87;;;5.10;;
18280;SDS011;9266;51.132;17.062;2023-06-14T12:15:12;7.53;;;4.73;;
18280;SDS011;9266;51.132;17.062;2023-06-14T12:17:39;5.73;;;4.47;;
18280;SDS011;9266;51.132;17.062;2023-06-14T12:20:09;6.30;;;4.80;;
18280;SDS011;9266;51.132;17.062;2023-06-14T12:22:38;8.80;;;5.20;;
18280;SDS011;9266;51.132;17.062;2023-06-14T12:25:07;6.17;;;4.87;;
18280;SDS011;9266;51.132;17.062;2023-06-14T12:27:35;5.23;;;4.80;;
18280;SDS011;9266;51.132;17.062;2023-06-14T12:30:06;8.23;;;5.50;;
18280;SDS011;9266;51.132;17.062;2023-06-14T12:32:34;7.40;;;5.80;;
18280;SDS011;9266;51.132;17.062;2023-06-14T12:35:01;7.80;;;5.80;;
18280;SDS011;9266;51.132;17.062;2023-06-14T12:37:28;8.80;;;5.77;;
18280;SDS011;9266;51.132;17.062;2023-06-14T12:39:55;9.17;;;6.40;;
18280;SDS011;9266;51.132;17.062;2023-06-14T12:42:23;7.53;;;6.13;;
18280;SDS011;9266;51.132;17.062;2023-06-14T12:44:50;9.67;;;6.57;;
18280;SDS011;9266;51.132;17.062;2023-06-14T12:47:17;8.10;;;6.80;;
18280;SDS011;9266;51.132;17.062;2023-06-14T12:49:44;8.40;;;5.93;;
18280;SDS011;9266;51.132;17.062;2023-06-14T12:52:11;9.40;;;6.17;;
18280;SDS011;9266;51.132;17.062;2023-06-14T12:54:38;7.93;;;7.13;;
18280;SDS011;9266;51.132;17.062;2023-06-14T12:57:06;7.67;;;6.20;;
18280;SDS011;9266;51.132;17.062;2023-06-14T12:59:34;9.43;;;6.80;;
18280;SDS011;9266;51.132;17.062;2023-06-14T13:02:12;8.10;;;6.23;;
18280;SDS011;9266;51.132;17.062;2023-06-14T13:04:39;6.97;;;6.23;;
18280;SDS011;9266;51.132;17.062;2023-06-14T13:07:06;11.07;;;6.80;;
18280;SDS011;9266;51.132;17.062;2023-06-14T13:09:33;8.43;;;6.63;;
18280;SDS011;9266;51.132;17.062;2023-06-14T13:12:00;7.37;;;6.33;;
18280;SDS011;9266;51.132;17.062;2023-06-14T13:14:30;9.63;;;6.27;;
18280;SDS011;9266;51.132;17.062;2023-06-14T13:16:59;7.67;;;6.10;;
18280;SDS011;9266;51.132;17.062;2023-06-14T13:19:26;8.37;;;5.87;;
18280;SDS011;9266;51.132;17.062;2023-06-14T13:21:53;7.73;;;6.17;;
18280;SDS011;9266;51.132;17.062;2023-06-14T13:24:20;8.20;;;6.03;;
18280;SDS011;9266;51.132;17.062;2023-06-14T13:26:47;7.47;;;6.00;;
18280;SDS011;9266;51.132;17.062;2023-06-14T13:29:14;9.07;;;6.30;;
18280;SDS011;9266;51.132;17.062;2023-06-14T13:31:41;7.67;;;6.00;;
18280;SDS011;9266;51.132;17.062;2023-06-14T13:34:09;9.40;;;5.83;;
18280;SDS011;9266;51.132;17.062;2023-06-14T13:36:37;10.67;;;6.37;;
18280;SDS011;9266;51.132;17.062;2023-06-14T13:39:04;7.57;;;6.40;;
18280;SDS011;9266;51.132;17.062;2023-06-14T13:41:31;8.00;;;5.93;;
18280;SDS011;9266;51.132;17.062;2023-06-14T13:44:00;7.63;;;6.00;;
18280;SDS011;9266;51.132;17.062;2023-06-14T13:46:29;11.30;;;5.77;;
18280;SDS011;9266;51.132;17.062;2023-06-14T13:48:56;8.03;;;5.53;;
18280;SDS011;9266;51.132;17.062;2023-06-14T13:51:26;7.83;;;5.53;;
18280;SDS011;9266;51.132;17.062;2023-06-14T13:53:54;7.23;;;5.73;;
18280;SDS011;9266;51.132;17.062;2023-06-14T13:56:21;7.33;;;6.00;;
18280;SDS011;9266;51.132;17.062;2023-06-14T13:58:49;8.33;;;5.80;;
18280;SDS011;9266;51.132;17.062;2023-06-14T14:01:17;6.60;;;5.57;;
18280;SDS011;9266;51.132;17.062;2023-06-14T14:03:44;7.70;;;6.20;;
18280;SDS011;9266;51.132;17.062;2023-06-14T14:06:12;9.33;;;5.50;;
18280;SDS011;9266;51.132;17.062;2023-06-14T14:08:41;7.67;;;5.20;;
18280;SDS011;9266;51.132;17.062;2023-06-14T14:11:08;8.17;;;5.30;;
18280;SDS011;9266;51.132;17.062;2023-06-14T14:13:36;6.83;;;4.93;;
18280;SDS011;9266;51.132;17.062;2023-06-14T14:16:03;7.50;;;4.43;;
18280;SDS011;9266;51.132;17.062;2023-06-14T14:18:31;5.10;;;4.60;;
18280;SDS011;9266;51.132;17.062;2023-06-14T14:20:58;5.90;;;4.20;;
18280;SDS011;9266;51.132;17.062;2023-06-14T14:23:27;6.47;;;4.30;;
18280;SDS011;9266;51.132;17.062;2023-06-14T14:25:56;6.00;;;4.03;;
18280;SDS011;9266;51.132;17.062;2023-06-14T14:28:23;5.40;;;4.87;;
18280;SDS011;9266;51.132;17.062;2023-06-14T14:30:50;7.23;;;4.90;;
18280;SDS011;9266;51.132;17.062;2023-06-14T14:33:18;7.43;;;4.53;;
18280;SDS011;9266;51.132;17.062;2023-06-14T14:35:45;5.80;;;4.90;;
18280;SDS011;9266;51.132;17.062;2023-06-14T14:38:12;6.03;;;5.37;;
18280;SDS011;9266;51.132;17.062;2023-06-14T14:40:40;6.47;;;4.90;;
18280;SDS011;9266;51.132;17.062;2023-06-14T14:43:09;8.57;;;5.33;;
18280;SDS011;9266;51.132;17.062;2023-06-14T14:45:36;7.07;;;5.20;;
18280;SDS011;9266;51.132;17.062;2023-06-14T14:48:03;6.80;;;5.57;;
18280;SDS011;9266;51.132;17.062;2023-06-14T14:50:30;6.70;;;6.00;;